Time;durP1;ratioP1;P1;durP2;ratioP2;P2;SDS_P1;SDS_P2;PMS_P1;PMS_P2;Temp;Humidity;BMP_temperature;BMP_pressure;BME280_temperature;BME280_humidity;BME280_pressure;Samples;Min_cycle;Max_cycle;Signal;HPM_P1;HPM_P2
2021/12/21 00:00:29;;;;;;;17.88;9.38;;;-2.00;99.90;;;;;;4981160;28;20039;-79
2021/12/21 00:02:55;;;;;;;20.08;6.57;;;-2.00;99.90;;;;;;4978732;28;20053;-79
2021/12/21 00:05:25;;;;;;;22.27;8.77;;;-2.00;99.90;;;;;;4980165;28;20043;-79
2021/12/21 00:07:53;;;;;;;10.85;5.32;;;-2.00;99.90;;;;;;4978837;28;20125;-79
2021/12/21 00:10:21;;;;;;;13.60;4.88;;;-2.00;99.90;;;;;;4979558;28;20507;-79
2021/12/21 00:13:03;;;;;;;11.18;4.38;;;-2.00;99.90;;;;;;4978816;28;20061;-79
2021/12/21 00:23:30;;;;;;;14.98;5.65;;;-1.90;99.90;;;;;;4978544;28;20545;-79
2021/12/21 00:25:59;;;;;;;13.98;5.80;;;-2.00;99.90;;;;;;4978058;28;20055;-79
2021/12/21 00:28:25;;;;;;;16.20;4.85;;;-2.00;99.90;;;;;;4977857;28;20043;-79
2021/12/21 00:30:51;;;;;;;10.90;4.97;;;-2.00;99.90;;;;;;4961895;28;20038;-79
2021/12/21 00:33:17;;;;;;;11.77;5.15;;;-2.00;99.90;;;;;;4977782;28;20058;-79
2021/12/21 00:35:43;;;;;;;11.50;5.50;;;-2.10;99.90;;;;;;4978688;28;20043;-79
2021/12/21 00:38:09;;;;;;;9.55;5.43;;;-2.10;99.90;;;;;;4977418;28;20113;-79
2021/12/21 00:40:34;;;;;;;12.10;5.45;;;-2.20;99.90;;;;;;4977190;28;20499;-79
2021/12/21 00:43:00;;;;;;;11.60;5.30;;;-2.20;99.90;;;;;;4978021;28;20046;-79
2021/12/21 00:45:26;;;;;;;14.00;5.25;;;-2.20;99.90;;;;;;4960711;28;20074;-79
2021/12/21 00:47:51;;;;;;;12.30;5.15;;;-2.10;99.90;;;;;;4977780;28;20042;-79
2021/12/21 00:50:19;;;;;;;9.90;4.25;;;-2.00;99.90;;;;;;4976940;28;20381;-79
2021/12/21 00:52:46;;;;;;;11.90;5.03;;;-2.00;99.90;;;;;;4975966;28;20039;-79
2021/12/21 00:55:12;;;;;;;14.63;5.10;;;-2.00;99.90;;;;;;4976966;28;20039;-79
2021/12/21 00:57:38;;;;;;;11.63;4.65;;;-2.00;99.90;;;;;;4960612;28;20130;-79
2021/12/21 01:00:06;;;;;;;11.52;5.28;;;-2.00;99.90;;;;;;4961130;28;20045;-79
2021/12/21 01:02:31;;;;;;;14.55;5.45;;;-2.10;99.90;;;;;;4960410;28;20094;-79
2021/12/21 01:04:58;;;;;;;10.05;4.30;;;-2.10;99.90;;;;;;4976101;28;20351;-79
2021/12/21 01:07:33;;;;;;;9.80;4.15;;;-2.10;99.90;;;;;;4974589;28;20054;-79
2021/12/21 01:12:56;;;;;;;5.65;4.15;;;-2.10;99.90;;;;;;4976389;28;20054;-79
2021/12/21 01:18:15;;;;;;;10.65;4.63;;;-2.20;99.90;;;;;;4976573;28;20519;-79
2021/12/21 01:20:48;;;;;;;10.02;4.32;;;-2.30;99.90;;;;;;4976357;28;20047;-79
2021/12/21 01:26:38;;;;;;;7.78;4.53;;;-2.20;99.90;;;;;;4975053;28;20078;-79
2021/12/21 01:29:11;;;;;;;13.50;5.78;;;-2.30;99.90;;;;;;4972585;28;20057;-79
2021/12/21 01:31:50;;;;;;;9.90;5.85;;;-2.30;99.90;;;;;;4973380;28;20042;-79
2021/12/21 01:34:30;;;;;;;12.75;4.82;;;-2.30;99.90;;;;;;4975186;28;20456;-79
2021/12/21 01:37:50;;;;;;;8.38;4.50;;;-2.30;99.90;;;;;;4973834;28;20404;-79
2021/12/21 01:42:41;;;;;;;8.60;4.82;;;-2.30;99.90;;;;;;4972916;28;20038;-79
2021/12/21 01:50:36;;;;;;;20.15;5.32;;;-2.40;99.90;;;;;;4974042;28;20069;-79
2021/12/21 01:53:02;;;;;;;15.75;5.13;;;-2.40;99.90;;;;;;4957522;28;20039;-79
2021/12/21 01:55:27;;;;;;;13.20;5.03;;;-2.40;99.90;;;;;;4974955;28;20168;-79
2021/12/21 01:57:53;;;;;;;13.32;5.22;;;-2.50;99.90;;;;;;4973136;28;20042;-79
2021/12/21 02:00:19;;;;;;;11.90;4.82;;;-2.60;99.90;;;;;;4973915;28;20084;-79
2021/12/21 02:02:45;;;;;;;9.13;4.30;;;-2.60;99.90;;;;;;4974150;28;20043;-79
2021/12/21 02:05:11;;;;;;;13.18;4.85;;;-2.60;99.90;;;;;;4973419;28;20160;-79
2021/12/21 02:07:36;;;;;;;11.23;4.90;;;-2.60;99.90;;;;;;4973368;28;20049;-79
2021/12/21 02:10:04;;;;;;;12.75;5.45;;;-2.70;99.90;;;;;;4958547;28;20115;-79
2021/12/21 02:12:30;;;;;;;13.15;5.43;;;-2.70;99.90;;;;;;4974719;28;20106;-79
2021/12/21 02:14:58;;;;;;;11.43;5.22;;;-2.70;99.90;;;;;;4974511;28;20053;-79
2021/12/21 02:23:00;;;;;;;12.32;4.72;;;-2.90;99.90;;;;;;4974379;28;20051;-79
2021/12/21 02:30:49;;;;;;;7.50;4.45;;;-2.90;99.90;;;;;;4965031;28;20046;-79
2021/12/21 02:33:16;;;;;;;7.47;4.07;;;-2.90;99.90;;;;;;4974388;28;20042;-79
2021/12/21 02:35:43;;;;;;;8.13;4.75;;;-3.00;99.90;;;;;;4975178;28;20115;-79
2021/12/21 02:38:09;;;;;;;7.05;3.92;;;-3.00;99.90;;;;;;4959097;28;20129;-79
2021/12/21 02:40:35;;;;;;;6.95;3.90;;;-3.10;99.90;;;;;;4958355;28;20411;-79
2021/12/21 02:43:01;;;;;;;9.75;4.50;;;-3.10;99.90;;;;;;4973875;28;20050;-79
2021/12/21 02:45:27;;;;;;;10.52;5.18;;;-3.00;99.90;;;;;;4974729;28;20082;-79
2021/12/21 02:47:53;;;;;;;6.85;4.60;;;-3.00;99.90;;;;;;4974255;28;20090;-79
2021/12/21 02:50:18;;;;;;;9.55;5.53;;;-3.00;99.90;;;;;;4975142;28;20039;-79
2021/12/21 02:52:46;;;;;;;9.07;4.70;;;-3.00;99.90;;;;;;4973538;28;20507;-79
2021/12/21 02:55:12;;;;;;;12.32;5.38;;;-3.00;99.90;;;;;;4973865;28;20043;-79
2021/12/21 02:57:37;;;;;;;13.05;5.38;;;-2.90;99.90;;;;;;4973799;28;20039;-79
2021/12/21 03:00:05;;;;;;;9.90;5.35;;;-2.90;99.90;;;;;;4972405;28;20404;-79
2021/12/21 03:02:32;;;;;;;13.68;5.93;;;-2.90;99.90;;;;;;4973508;28;20388;-79
2021/12/21 03:04:57;;;;;;;9.90;6.05;;;-2.90;99.90;;;;;;4973374;28;20051;-78
2021/12/21 03:10:22;;;;;;;9.67;5.57;;;-2.90;99.90;;;;;;4964298;28;20074;-79
2021/12/21 03:15:32;;;;;;;11.43;5.95;;;-2.80;99.90;;;;;;4972014;28;20503;-78
2021/12/21 03:17:58;;;;;;;9.63;6.50;;;-2.80;99.90;;;;;;4971832;28;20039;-78
2021/12/21 03:20:24;;;;;;;11.63;5.90;;;-2.80;99.90;;;;;;4974401;28;20037;-79
2021/12/21 03:22:50;;;;;;;11.23;5.03;;;-2.80;99.90;;;;;;4977750;28;20051;-81
2021/12/21 03:25:17;;;;;;;10.90;5.55;;;-2.80;99.90;;;;;;4979296;28;20053;-80
2021/12/21 03:27:43;;;;;;;8.93;6.03;;;-2.90;99.90;;;;;;4978272;28;20039;-81
2021/12/21 03:30:12;;;;;;;12.63;5.82;;;-2.80;99.90;;;;;;4979518;28;20134;-80
2021/12/21 03:32:38;;;;;;;9.88;5.57;;;-2.80;99.90;;;;;;4979907;28;20098;-80
2021/12/21 03:35:04;;;;;;;11.52;6.70;;;-2.80;99.90;;;;;;4963479;28;20039;-80
2021/12/21 03:37:30;;;;;;;11.27;6.13;;;-2.80;99.90;;;;;;4979561;28;20047;-80
2021/12/21 03:39:57;;;;;;;14.18;6.72;;;-2.80;99.90;;;;;;4979232;28;20415;-81
2021/12/21 03:42:24;;;;;;;12.75;6.18;;;-2.90;99.90;;;;;;4962612;28;20031;-81
2021/12/21 03:44:49;;;;;;;11.93;7.50;;;-2.90;99.90;;;;;;4962740;28;20183;-80
2021/12/21 03:47:17;;;;;;;12.15;6.78;;;-2.90;99.90;;;;;;4979465;28;20055;-81
2021/12/21 03:52:16;;;;;;;18.50;7.60;;;-2.80;99.90;;;;;;4979854;28;20054;-82
2021/12/21 03:54:45;;;;;;;8.38;5.35;;;-2.80;99.90;;;;;;4979193;28;20042;-81
2021/12/21 03:57:11;;;;;;;12.35;5.93;;;-2.80;99.90;;;;;;4980082;28;20039;-81
2021/12/21 03:59:37;;;;;;;11.07;6.88;;;-2.80;99.90;;;;;;4980027;28;20511;-80
2021/12/21 04:02:05;;;;;;;10.93;6.53;;;-2.70;99.90;;;;;;4979499;28;20054;-81
2021/12/21 04:04:31;;;;;;;11.07;7.05;;;-2.70;99.90;;;;;;4978924;28;20536;-81
2021/12/21 04:06:57;;;;;;;9.48;6.55;;;-2.70;99.90;;;;;;4978570;28;20042;-81
2021/12/21 04:09:23;;;;;;;15.20;6.65;;;-2.70;99.90;;;;;;4979193;28;20051;-81
2021/12/21 04:11:48;;;;;;;14.23;6.68;;;-2.70;99.90;;;;;;4979520;28;20054;-81
2021/12/21 04:14:16;;;;;;;12.23;6.82;;;-2.70;99.90;;;;;;4963822;28;20126;-81
2021/12/21 04:16:42;;;;;;;12.68;6.20;;;-2.80;99.90;;;;;;4978661;28;20117;-81
2021/12/21 04:19:07;;;;;;;14.77;7.80;;;-2.80;99.90;;;;;;4980256;28;20103;-81
2021/12/21 04:21:33;;;;;;;14.43;6.43;;;-2.90;99.90;;;;;;4977648;28;20055;-80
2021/12/21 04:23:58;;;;;;;19.13;7.57;;;-2.90;99.90;;;;;;4978429;28;20054;-80
2021/12/21 04:26:24;;;;;;;18.35;8.32;;;-2.90;99.90;;;;;;4978694;28;20050;-81
2021/12/21 04:28:50;;;;;;;15.10;7.20;;;-2.90;99.90;;;;;;4979579;28;20050;-82
2021/12/21 04:31:15;;;;;;;11.38;7.18;;;-2.90;99.90;;;;;;4979641;28;20043;-81
2021/12/21 04:33:42;;;;;;;14.50;7.72;;;-2.90;99.90;;;;;;4981514;28;20050;-81
2021/12/21 04:36:09;;;;;;;14.73;7.25;;;-2.90;99.90;;;;;;4981932;28;20042;-80
2021/12/21 04:38:39;;;;;;;16.55;7.15;;;-3.00;99.90;;;;;;4981960;28;20038;-80
2021/12/21 04:41:15;;;;;;;18.83;7.82;;;-3.00;99.90;;;;;;4978283;28;20039;-81
2021/12/21 04:43:42;;;;;;;12.57;6.82;;;-3.00;99.90;;;;;;4961552;28;20097;-81
2021/12/21 04:46:08;;;;;;;10.40;5.82;;;-3.00;99.90;;;;;;4979955;28;20042;-80
2021/12/21 04:48:34;;;;;;;15.20;7.40;;;-3.00;99.90;;;;;;4984259;28;20046;-80
2021/12/21 04:51:00;;;;;;;15.43;7.30;;;-3.00;99.90;;;;;;4983816;28;20043;-80
2021/12/21 04:53:25;;;;;;;11.60;6.22;;;-3.10;99.90;;;;;;4984833;28;20050;-80
2021/12/21 04:55:52;;;;;;;15.27;6.32;;;-3.10;99.90;;;;;;4979702;28;20125;-80
2021/12/21 04:58:18;;;;;;;13.48;7.85;;;-3.10;99.90;;;;;;4977106;28;20042;-80
2021/12/21 05:00:44;;;;;;;15.18;6.18;;;-3.10;99.90;;;;;;4975275;28;20126;-80
2021/12/21 05:03:10;;;;;;;13.32;6.05;;;-3.20;99.90;;;;;;4975323;28;20047;-80
2021/12/21 05:05:35;;;;;;;10.93;6.57;;;-3.20;99.90;;;;;;4976501;28;20062;-80
2021/12/21 05:08:17;;;;;;;18.33;7.20;;;-3.30;99.90;;;;;;4960167;28;20047;-80
2021/12/21 05:10:53;;;;;;;13.23;7.57;;;-3.30;99.90;;;;;;4976641;28;20050;-80
2021/12/21 05:13:22;;;;;;;14.05;6.43;;;-3.40;99.90;;;;;;4978530;28;20436;-80
2021/12/21 05:15:48;;;;;;;16.08;7.50;;;-3.40;99.90;;;;;;4975910;28;20500;-80
2021/12/21 05:18:15;;;;;;;12.57;6.43;;;-3.40;99.90;;;;;;4962189;28;20039;-80
2021/12/21 05:20:41;;;;;;;16.92;7.90;;;-3.40;99.90;;;;;;4977284;28;20039;-80
2021/12/21 05:23:08;;;;;;;12.20;7.55;;;-3.40;99.90;;;;;;4977144;28;20046;-80
2021/12/21 05:25:35;;;;;;;16.85;7.68;;;-3.40;99.90;;;;;;4959992;28;20053;-80
2021/12/21 05:28:01;;;;;;;12.70;7.78;;;-3.40;99.90;;;;;;4977184;28;20512;-80
2021/12/21 05:30:27;;;;;;;14.23;7.53;;;-3.40;99.90;;;;;;4976918;28;20051;-80
2021/12/21 05:32:54;;;;;;;15.15;7.00;;;-3.40;99.90;;;;;;4960750;28;20058;-80
2021/12/21 05:35:20;;;;;;;13.75;6.72;;;-3.30;99.90;;;;;;4977431;28;20461;-80
2021/12/21 05:37:48;;;;;;;12.15;6.57;;;-3.30;99.90;;;;;;4977867;28;20047;-80
2021/12/21 05:40:16;;;;;;;78.57;37.03;;;-3.30;99.90;;;;;;4978766;28;20039;-82
2021/12/21 05:42:45;;;;;;;12.57;7.35;;;-3.30;99.90;;;;;;4962753;28;20105;-82
2021/12/21 05:45:13;;;;;;;14.45;7.60;;;-3.40;99.90;;;;;;4979269;28;20105;-83
2021/12/21 05:47:39;;;;;;;13.52;6.97;;;-3.40;99.90;;;;;;4980255;28;20498;-81
2021/12/21 05:50:09;;;;;;;13.32;6.80;;;-3.40;99.90;;;;;;4978719;28;20125;-83
2021/12/21 05:52:35;;;;;;;22.05;6.90;;;-3.50;99.90;;;;;;4963894;28;20043;-83
2021/12/21 05:55:01;;;;;;;11.15;6.50;;;-3.50;99.90;;;;;;4963947;28;20090;-83
2021/12/21 05:57:27;;;;;;;12.85;6.75;;;-3.50;99.90;;;;;;4981857;28;20058;-83
2021/12/21 05:59:53;;;;;;;12.23;6.45;;;-3.40;99.90;;;;;;4964368;28;20499;-83
2021/12/21 06:02:18;;;;;;;11.57;6.78;;;-3.40;99.90;;;;;;4964666;28;20077;-83
2021/12/21 06:04:44;;;;;;;14.07;7.60;;;-3.30;99.90;;;;;;4962981;28;20039;-83
2021/12/21 06:07:10;;;;;;;14.70;6.68;;;-3.30;99.90;;;;;;4964061;28;20043;-83
2021/12/21 06:09:36;;;;;;;18.77;7.95;;;-3.30;99.90;;;;;;4981240;28;20049;-83
2021/12/21 06:22:44;;;;;;;15.45;7.07;;;-3.50;99.90;;;;;;4977063;28;20043;-82
2021/12/21 06:27:55;;;;;;;15.82;7.18;;;-3.50;99.90;;;;;;4977457;28;20045;-83
2021/12/21 06:30:21;;;;;;;14.15;6.72;;;-3.50;99.90;;;;;;4959696;28;20440;-80
2021/12/21 06:32:47;;;;;;;32.25;14.88;;;-3.50;99.90;;;;;;4958677;28;20077;-81
2021/12/21 06:35:13;;;;;;;25.30;11.52;;;-3.50;99.90;;;;;;4958527;28;20322;-81
2021/12/21 06:37:39;;;;;;;21.95;7.68;;;-3.40;99.90;;;;;;4975897;28;20418;-81
2021/12/21 06:40:05;;;;;;;17.58;9.07;;;-3.50;99.90;;;;;;4976041;28;20112;-81
2021/12/21 06:42:31;;;;;;;15.10;7.88;;;-3.40;99.90;;;;;;4975561;28;20098;-81
2021/12/21 06:44:59;;;;;;;16.88;7.63;;;-3.50;99.90;;;;;;4981135;28;20054;-81
2021/12/21 06:52:54;;;;;;;27.23;8.02;;;-3.50;99.90;;;;;;4975048;28;20058;-79
2021/12/21 06:55:20;;;;;;;14.63;7.63;;;-3.50;99.90;;;;;;4959555;28;20463;-79
2021/12/21 06:57:46;;;;;;;16.92;8.27;;;-3.50;99.90;;;;;;4979862;28;20065;-79
2021/12/21 07:00:15;;;;;;;15.10;8.32;;;-3.50;99.90;;;;;;4964096;28;20039;-79
2021/12/21 07:02:41;;;;;;;24.50;8.82;;;-3.50;99.90;;;;;;4980302;28;20105;-79
2021/12/21 07:05:08;;;;;;;17.67;9.05;;;-3.50;99.90;;;;;;4980439;28;20049;-79
2021/12/21 07:07:35;;;;;;;13.73;7.03;;;-3.50;99.90;;;;;;4980494;28;20042;-79
2021/12/21 07:10:05;;;;;;;13.85;7.57;;;-3.40;99.90;;;;;;4981203;28;20119;-79
2021/12/21 07:18:07;;;;;;;13.85;8.10;;;-3.40;99.90;;;;;;4979053;28;20122;-79
2021/12/21 07:20:33;;;;;;;14.88;6.50;;;-3.40;99.90;;;;;;4979269;28;20070;-79
2021/12/21 07:22:59;;;;;;;17.23;6.95;;;-3.50;99.90;;;;;;4979383;28;20515;-79
2021/12/21 07:25:25;;;;;;;13.35;7.57;;;-3.50;99.90;;;;;;4978843;28;20488;-79
2021/12/21 07:27:52;;;;;;;12.65;6.95;;;-3.50;99.90;;;;;;4962987;28;20039;-79
2021/12/21 07:30:17;;;;;;;14.77;7.72;;;-3.60;99.90;;;;;;4978060;28;20042;-81
2021/12/21 07:32:43;;;;;;;15.50;7.72;;;-3.60;99.90;;;;;;4979622;28;20563;-81
2021/12/21 07:35:09;;;;;;;14.05;7.40;;;-3.60;99.90;;;;;;4962427;28;20550;-82
2021/12/21 07:37:35;;;;;;;10.85;6.57;;;-3.70;99.90;;;;;;4979611;28;20579;-82
2021/12/21 07:40:02;;;;;;;13.10;8.18;;;-3.70;99.90;;;;;;4962091;28;20082;-82
2021/12/21 07:42:28;;;;;;;15.93;7.20;;;-3.70;99.90;;;;;;4979136;28;20042;-81
2021/12/21 07:44:54;;;;;;;15.02;7.55;;;-3.70;99.90;;;;;;4979143;28;20035;-82
2021/12/21 07:47:19;;;;;;;11.45;6.65;;;-3.70;99.90;;;;;;4962864;28;20043;-81
2021/12/21 07:49:45;;;;;;;15.52;7.65;;;-3.70;99.90;;;;;;4979264;28;20043;-82
2021/12/21 07:52:12;;;;;;;17.10;8.52;;;-3.60;99.90;;;;;;4962877;28;20042;-81
2021/12/21 07:54:37;;;;;;;15.20;7.18;;;-3.70;99.90;;;;;;4978783;28;20049;-81
2021/12/21 07:57:06;;;;;;;15.68;7.68;;;-3.60;99.90;;;;;;4978955;28;20411;-82
2021/12/21 07:59:32;;;;;;;16.08;8.93;;;-3.60;99.90;;;;;;4976546;28;20053;-79
2021/12/21 08:01:58;;;;;;;15.98;8.48;;;-3.40;99.90;;;;;;4974866;28;20049;-79
2021/12/21 08:04:27;;;;;;;16.25;7.43;;;-3.40;99.90;;;;;;4975002;28;20046;-79
2021/12/21 08:06:56;;;;;;;20.63;8.10;;;-3.30;99.90;;;;;;4974176;28;20039;-79
2021/12/21 08:09:21;;;;;;;13.57;7.75;;;-3.30;99.90;;;;;;4974686;28;20054;-79
2021/12/21 08:14:32;;;;;;;18.42;8.23;;;-3.30;99.90;;;;;;4974646;28;20089;-79
2021/12/21 08:16:58;;;;;;;14.95;7.35;;;-3.30;99.90;;;;;;4974630;28;20101;-79
2021/12/21 08:19:23;;;;;;;13.93;7.05;;;-3.30;99.90;;;;;;4974508;28;20035;-79
2021/12/21 08:21:49;;;;;;;15.85;7.78;;;-3.40;99.90;;;;;;4974526;28;20086;-79
2021/12/21 08:24:14;;;;;;;15.80;8.02;;;-3.40;99.90;;;;;;4974895;28;20078;-79
2021/12/21 08:26:40;;;;;;;15.38;8.23;;;-3.40;99.90;;;;;;4974303;28;20038;-79
2021/12/21 08:29:05;;;;;;;14.73;8.00;;;-3.40;99.90;;;;;;4958217;28;20043;-79
2021/12/21 08:31:31;;;;;;;21.02;7.95;;;-3.40;99.90;;;;;;4976329;28;20035;-81
2021/12/21 08:33:56;;;;;;;12.30;7.15;;;-3.30;99.90;;;;;;4977397;28;20419;-79
2021/12/21 08:36:22;;;;;;;16.25;7.63;;;-3.30;99.90;;;;;;4975013;28;20071;-82
2021/12/21 08:38:47;;;;;;;16.50;8.15;;;-3.20;99.90;;;;;;4961813;28;20511;-81
2021/12/21 08:41:13;;;;;;;15.48;6.80;;;-3.10;99.90;;;;;;4962317;28;20521;-81
2021/12/21 08:43:39;;;;;;;16.60;7.47;;;-3.00;99.90;;;;;;4978122;28;20046;-81
2021/12/21 08:46:07;;;;;;;18.17;7.80;;;-2.90;99.90;;;;;;4977871;28;20086;-81
2021/12/21 08:48:33;;;;;;;15.15;8.57;;;-2.90;99.90;;;;;;4961899;28;20066;-81
2021/12/21 08:51:00;;;;;;;19.88;7.72;;;-2.80;99.90;;;;;;4978538;28;20061;-81
2021/12/21 08:53:25;;;;;;;14.98;9.52;;;-2.60;99.90;;;;;;4978079;28;20042;-81
2021/12/21 08:55:52;;;;;;;16.92;8.45;;;-2.40;99.90;;;;;;4977432;28;20043;-81
2021/12/21 08:58:19;;;;;;;15.65;8.88;;;-2.10;99.90;;;;;;4978384;28;20053;-81
2021/12/21 09:00:46;;;;;;;27.15;10.30;;;-1.90;99.90;;;;;;4976210;28;20050;-81
2021/12/21 09:03:12;;;;;;;20.63;13.35;;;-1.60;99.90;;;;;;4960972;28;20396;-81
2021/12/21 09:05:40;;;;;;;17.77;10.20;;;-1.30;99.90;;;;;;4976914;28;20051;-80
2021/12/21 09:08:06;;;;;;;19.15;9.57;;;-1.10;99.90;;;;;;4961536;28;20051;-80
2021/12/21 09:10:33;;;;;;;18.58;9.35;;;-1.10;99.90;;;;;;4977273;28;20403;-81
2021/12/21 09:12:59;;;;;;;14.02;9.82;;;-0.90;99.90;;;;;;4976471;28;20042;-80
2021/12/21 09:15:27;;;;;;;20.52;9.57;;;-0.90;99.90;;;;;;4960614;28;20038;-81
2021/12/21 09:17:52;;;;;;;21.77;9.45;;;-0.80;99.90;;;;;;4976225;28;20053;-81
2021/12/21 09:20:22;;;;;;;18.75;9.25;;;-0.50;99.90;;;;;;4976932;28;20039;-81
2021/12/21 09:22:48;;;;;;;24.58;10.63;;;-0.30;99.90;;;;;;4977458;28;20053;-80
2021/12/21 09:25:15;;;;;;;23.10;10.65;;;0.20;99.90;;;;;;4961283;28;20066;-81
2021/12/21 09:27:41;;;;;;;23.00;11.48;;;0.60;99.90;;;;;;4977114;28;20113;-80
2021/12/21 09:30:09;;;;;;;20.80;11.38;;;1.20;99.90;;;;;;4977335;28;20459;-80
2021/12/21 09:32:35;;;;;;;18.52;11.23;;;1.80;99.90;;;;;;4977885;28;20045;-81
2021/12/21 09:35:01;;;;;;;21.90;11.27;;;2.20;99.90;;;;;;4960935;28;20129;-81
2021/12/21 09:37:27;;;;;;;24.95;10.95;;;2.50;99.90;;;;;;4960879;28;20133;-81
2021/12/21 09:39:55;;;;;;;17.92;10.73;;;2.80;99.90;;;;;;4960446;28;20035;-81
2021/12/21 09:42:27;;;;;;;21.77;11.52;;;3.00;99.90;;;;;;4974545;28;20042;-78
2021/12/21 09:44:53;;;;;;;24.13;12.00;;;3.30;99.90;;;;;;4956745;28;20415;-79
2021/12/21 09:47:19;;;;;;;21.33;11.45;;;3.60;99.90;;;;;;4972581;28;20043;-79
2021/12/21 09:49:46;;;;;;;22.77;11.85;;;4.00;99.90;;;;;;4972742;28;20051;-79
2021/12/21 09:52:18;;;;;;;21.92;12.45;;;4.10;99.90;;;;;;4973148;28;20126;-79
2021/12/21 09:54:44;;;;;;;22.17;12.25;;;4.20;99.90;;;;;;4975449;28;20042;-80
2021/12/21 09:57:11;;;;;;;23.25;13.05;;;4.00;99.90;;;;;;4975604;28;20050;-81
2021/12/21 09:59:36;;;;;;;25.65;13.23;;;3.70;99.90;;;;;;4975285;28;20039;-81
2021/12/21 10:02:03;;;;;;;19.85;12.75;;;3.10;99.90;;;;;;4958956;28;20420;-80
2021/12/21 10:04:30;;;;;;;26.27;13.75;;;2.70;99.90;;;;;;4958685;28;20097;-80
2021/12/21 10:06:57;;;;;;;23.50;13.25;;;2.40;99.90;;;;;;4975199;28;20042;-80
2021/12/21 10:09:32;;;;;;;27.38;14.02;;;2.10;99.90;;;;;;4975746;28;20046;-80
2021/12/21 10:11:58;;;;;;;26.73;13.95;;;1.90;99.90;;;;;;4975125;28;20035;-79
2021/12/21 10:14:25;;;;;;;23.00;13.15;;;1.70;99.90;;;;;;4974321;28;20570;-79
2021/12/21 10:17:06;;;;;;;28.33;14.40;;;1.50;99.90;;;;;;4974097;28;20039;-79
2021/12/21 10:19:32;;;;;;;21.67;13.93;;;1.50;99.90;;;;;;4974478;28;20097;-79
2021/12/21 10:22:12;;;;;;;27.17;14.85;;;1.30;99.90;;;;;;4974413;28;20043;-79
2021/12/21 10:24:47;;;;;;;27.80;13.93;;;1.30;99.90;;;;;;4972957;28;20054;-78
2021/12/21 10:27:13;;;;;;;25.92;15.90;;;1.30;99.90;;;;;;4971935;28;20598;-78
2021/12/21 10:29:58;;;;;;;26.80;14.48;;;1.30;99.90;;;;;;4956466;28;20078;-78
2021/12/21 10:32:33;;;;;;;24.83;13.95;;;1.40;99.90;;;;;;4972422;28;20057;-79
2021/12/21 10:35:10;;;;;;;26.23;13.63;;;1.50;99.90;;;;;;4972109;28;20047;-78
2021/12/21 10:37:38;;;;;;;23.75;13.15;;;1.50;99.90;;;;;;4956541;28;20035;-79
2021/12/21 10:40:26;;;;;;;28.67;14.00;;;1.60;99.90;;;;;;4972375;28;20142;-78
2021/12/21 10:43:04;;;;;;;24.20;13.15;;;1.60;99.90;;;;;;4972004;28;20054;-79
2021/12/21 10:45:39;;;;;;;25.75;13.63;;;1.60;99.90;;;;;;4973126;28;20403;-79
2021/12/21 10:48:08;;;;;;;25.08;13.52;;;1.60;99.90;;;;;;4972682;28;20105;-79
2021/12/21 10:50:35;;;;;;;29.38;13.40;;;1.70;99.90;;;;;;4957240;28;20054;-79
2021/12/21 10:53:03;;;;;;;28.20;14.52;;;1.70;99.90;;;;;;4973201;28;20050;-79
2021/12/21 10:55:32;;;;;;;25.67;14.38;;;1.70;99.90;;;;;;4957169;28;20057;-80
2021/12/21 10:58:07;;;;;;;26.30;14.60;;;1.70;99.90;;;;;;4976612;28;20047;-82
2021/12/21 11:00:36;;;;;;;30.23;13.35;;;1.70;99.90;;;;;;4976452;28;20113;-80
2021/12/21 11:03:01;;;;;;;24.77;13.38;;;1.80;99.90;;;;;;4977851;28;20038;-81
2021/12/21 11:05:27;;;;;;;24.55;12.52;;;1.80;99.90;;;;;;4987798;28;20043;-81
2021/12/21 11:10:26;;;;;;;22.33;12.57;;;1.80;99.90;;;;;;4989082;28;20054;-82
2021/12/21 11:13:10;;;;;;;28.92;12.30;;;1.80;99.90;;;;;;4980068;28;20416;-81
2021/12/21 11:15:52;;;;;;;25.23;12.75;;;1.90;99.90;;;;;;4975963;28;20522;-81
2021/12/21 11:18:20;;;;;;;19.50;10.88;;;1.90;99.90;;;;;;4973484;28;20042;-78
2021/12/21 11:20:49;;;;;;;18.95;12.40;;;1.90;99.90;;;;;;4983254;28;20038;-81
2021/12/21 11:23:16;;;;;;;19.70;11.85;;;1.90;99.90;;;;;;4990228;28;20071;-81
2021/12/21 11:25:46;;;;;;;19.27;10.90;;;2.00;99.90;;;;;;4973813;28;20053;-81
2021/12/21 11:28:15;;;;;;;24.80;12.10;;;2.00;99.90;;;;;;4982174;28;20039;-79
2021/12/21 11:30:42;;;;;;;25.02;12.38;;;2.00;99.90;;;;;;4971358;28;20046;-79
2021/12/21 11:33:10;;;;;;;23.75;11.57;;;2.00;99.90;;;;;;4972705;28;20042;-78
2021/12/21 11:38:12;;;;;;;22.23;11.88;;;2.00;99.90;;;;;;4971326;28;20186;-78
2021/12/21 11:40:42;;;;;;;16.00;10.65;;;2.10;99.90;;;;;;4955335;28;20514;-79
2021/12/21 11:43:34;;;;;;;21.45;11.10;;;2.20;99.90;;;;;;4959458;28;20053;-79
2021/12/21 11:46:11;;;;;;;16.52;9.20;;;2.30;99.90;;;;;;4976110;28;20039;-78
2021/12/21 11:48:49;;;;;;;21.88;11.57;;;2.30;99.90;;;;;;4977485;28;20474;-79
2021/12/21 11:51:15;;;;;;;17.67;8.18;;;2.40;99.90;;;;;;4977548;28;20054;-79
2021/12/21 11:53:41;;;;;;;29.58;10.50;;;2.30;99.90;;;;;;4978439;28;20047;-79
2021/12/21 11:56:09;;;;;;;19.00;9.45;;;2.50;99.90;;;;;;4977031;28;20074;-79
2021/12/21 11:58:41;;;;;;;16.30;8.50;;;2.60;99.90;;;;;;4984035;28;20042;-79
2021/12/21 12:01:15;;;;;;;23.42;9.73;;;2.70;99.90;;;;;;4968983;28;20039;-79
2021/12/21 12:03:52;;;;;;;15.02;8.27;;;2.90;99.90;;;;;;4983725;28;20046;-80
2021/12/21 12:06:17;;;;;;;20.15;9.43;;;2.90;99.90;;;;;;4979899;28;20109;-80
2021/12/21 12:08:46;;;;;;;20.55;10.35;;;3.00;99.90;;;;;;4979780;28;20050;-81
2021/12/21 12:11:35;;;;;;;18.95;8.88;;;3.10;99.90;;;;;;4985577;28;20122;-80
2021/12/21 12:14:13;;;;;;;20.33;9.77;;;3.20;99.90;;;;;;4984670;28;20046;-80
2021/12/21 12:16:51;;;;;;;18.23;9.32;;;3.20;99.90;;;;;;4984760;28;20050;-80
2021/12/21 12:19:19;;;;;;;24.65;10.98;;;3.20;99.90;;;;;;4986725;28;20031;-80
2021/12/21 12:21:53;;;;;;;16.88;8.82;;;3.20;99.90;;;;;;4969431;28;20043;-80
2021/12/21 12:24:20;;;;;;;21.08;9.48;;;3.20;99.90;;;;;;4985958;28;20126;-80
2021/12/21 12:27:00;;;;;;;16.60;8.63;;;3.20;99.90;;;;;;4984669;28;20042;-80
2021/12/21 12:29:26;;;;;;;13.10;8.25;;;3.30;99.90;;;;;;4969153;28;20045;-80
2021/12/21 12:31:59;;;;;;;14.85;5.60;;;3.30;99.90;;;;;;4983428;28;20050;-79
2021/12/21 12:34:29;;;;;;;14.65;6.18;;;3.40;99.90;;;;;;4963103;28;20133;-79
2021/12/21 12:36:55;;;;;;;15.02;6.28;;;3.50;99.90;;;;;;4977789;28;20054;-79
2021/12/21 12:39:27;;;;;;;12.75;6.28;;;3.50;99.90;;;;;;4977388;28;20038;-79
2021/12/21 12:41:52;;;;;;;15.07;6.57;;;3.60;99.90;;;;;;4978192;28;20042;-79
2021/12/21 12:44:20;;;;;;;20.13;7.75;;;3.60;99.90;;;;;;4977387;28;20047;-79
2021/12/21 12:46:55;;;;;;;9.90;5.65;;;3.60;99.90;;;;;;4977472;28;20126;-79
2021/12/21 12:49:23;;;;;;;19.65;6.85;;;3.70;99.90;;;;;;4977244;28;20039;-78
2021/12/21 12:51:49;;;;;;;14.32;5.82;;;3.60;99.90;;;;;;4984012;28;20050;-80
2021/12/21 12:54:25;;;;;;;12.82;5.78;;;3.60;99.90;;;;;;4980382;28;20058;-80
2021/12/21 12:56:51;;;;;;;13.18;5.82;;;3.70;99.90;;;;;;4981878;28;20046;-80
2021/12/21 12:59:17;;;;;;;10.85;5.38;;;3.70;99.90;;;;;;4981627;28;20035;-80
2021/12/21 13:01:45;;;;;;;8.80;5.38;;;3.80;99.90;;;;;;4984571;28;20123;-80
2021/12/21 13:04:13;;;;;;;11.93;5.88;;;3.90;99.90;;;;;;4984309;28;20057;-80
2021/12/21 13:06:41;;;;;;;10.48;5.50;;;3.90;99.90;;;;;;4983800;28;20404;-80
2021/12/21 13:09:10;;;;;;;7.50;5.10;;;3.90;99.90;;;;;;4983201;28;20095;-80
2021/12/21 13:11:40;;;;;;;10.77;6.10;;;3.90;99.90;;;;;;4967443;28;20039;-80
2021/12/21 13:14:06;;;;;;;11.15;6.35;;;3.90;99.90;;;;;;4982311;28;20046;-80
2021/12/21 13:16:33;;;;;;;12.15;6.22;;;3.90;99.90;;;;;;4983228;28;20066;-80
2021/12/21 13:19:13;;;;;;;9.27;4.80;;;3.90;99.90;;;;;;4982210;28;20050;-80
2021/12/21 13:21:45;;;;;;;8.52;4.25;;;4.00;99.90;;;;;;4975465;28;20043;-80
2021/12/21 13:24:13;;;;;;;11.82;4.90;;;4.00;99.90;;;;;;4975919;28;20499;-80
2021/12/21 13:26:51;;;;;;;9.57;5.28;;;4.00;99.90;;;;;;4976055;28;20522;-80
2021/12/21 13:29:21;;;;;;;9.77;5.20;;;4.00;99.90;;;;;;4975766;28;20435;-80
2021/12/21 13:31:48;;;;;;;7.10;4.90;;;3.90;99.90;;;;;;4977947;28;20110;-80
2021/12/21 13:34:15;;;;;;;8.63;4.53;;;3.90;99.90;;;;;;4975875;28;20051;-80
2021/12/21 13:36:45;;;;;;;10.45;5.00;;;3.90;99.90;;;;;;4975638;28;20085;-80
2021/12/21 13:39:18;;;;;;;13.10;4.78;;;3.90;99.90;;;;;;4959582;28;20046;-81
2021/12/21 13:41:52;;;;;;;9.10;5.28;;;3.90;99.90;;;;;;4959448;28;20061;-80
2021/12/21 13:44:25;;;;;;;12.88;5.18;;;3.90;99.90;;;;;;4975664;28;20093;-81
2021/12/21 13:46:53;;;;;;;13.02;5.57;;;3.80;99.90;;;;;;4959519;28;20247;-80
2021/12/21 13:49:18;;;;;;;13.15;6.65;;;3.80;99.90;;;;;;4976205;28;20438;-81
2021/12/21 13:51:56;;;;;;;11.15;5.72;;;3.80;99.90;;;;;;4976364;28;20087;-81
2021/12/21 13:54:23;;;;;;;14.35;6.75;;;3.70;99.90;;;;;;4976174;28;20090;-81
2021/12/21 13:56:51;;;;;;;14.95;6.68;;;3.60;99.90;;;;;;4980442;28;20097;-79
2021/12/21 13:59:18;;;;;;;17.02;7.07;;;3.50;99.90;;;;;;4965970;28;20478;-79
2021/12/21 14:01:46;;;;;;;14.68;6.97;;;3.40;99.90;;;;;;4982284;28;20062;-79